KHLR/HLR METAR and TAF weather

Enter ICAO airport designator
Station Type Date Time Source
KHLR METAR 2021/05/11 22:52 UTC NOAA

KHLR 112252Z AUTO 07007KT 10SM BKN008 BKN290 17/16 A2996 RMK AO2 LTG DSNT NE AND S RAE16 TSE11 CIG 008V290 BKN008 V SCT SLP141


Station Type Date Time Source
KHLR Decoded METAR 2021/05/11 22:52 UTC NOAA

Fort Hood, Hood AAF Ft Hood, TX, United States (KHLR) 31-08N 097-42W
May 11, 2021 - 06:52 PM EDT / 2021.05.11 2252 UTC
Wind: from the ENE (070 degrees) at 8 MPH (7 KT):0
Visibility: 10 mile(s):0
Sky conditions: mostly cloudy
Weather: Lightning observed
Temperature: 62 F (17 C)
Dew Point: 60 F (16 C)
Relative Humidity: 93%
Pressure (altimeter): 29.96 in. Hg (1014 hPa)
ob: KHLR 112252Z AUTO 07007KT 10SM BKN008 BKN290 17/16 A2996 RMK AO2 LTG DSNT NE AND S RAE16 TSE11 CIG 008V290 BKN008 V SCT SLP141
cycle: 23

Station Type Date Time Source
KHLR TAF UTC NOAA

Error!

Example: see airport list